Time;durP1;ratioP1;P1;durP2;ratioP2;P2;SDS_P1;SDS_P2;PMS_P1;PMS_P2;Temp;Humidity;BMP_temperature;BMP_pressure;BME280_temperature;BME280_humidity;BME280_pressure;Samples;Min_cycle;Max_cycle;Signal;HPM_P1;HPM_P2
2023/02/25 00:03:29;;;;;;;19.08;5.57;;;5.00;99.90;;;;;;20904086;28;20036;-60
2023/02/25 00:13:32;;;;;;;17.33;6.43;;;5.00;99.90;;;;;;20903470;28;20451;-67
2023/02/25 00:23:34;;;;;;;23.10;6.20;;;5.00;99.90;;;;;;20902346;28;20055;-61
2023/02/25 00:33:40;;;;;;;17.88;5.15;;;4.90;99.90;;;;;;20901649;28;20082;-60
2023/02/25 00:43:47;;;;;;;11.82;4.70;;;5.00;99.90;;;;;;20902608;28;20029;-66
2023/02/25 00:53:49;;;;;;;15.55;4.78;;;5.00;99.90;;;;;;20902134;28;20055;-66
2023/02/25 01:03:54;;;;;;;16.00;5.18;;;4.70;99.90;;;;;;20906304;28;20025;-58
2023/02/25 01:13:58;;;;;;;16.23;6.80;;;4.90;99.90;;;;;;20916863;28;20095;-59
2023/02/25 01:24:27;;;;;;;17.60;6.40;;;4.90;99.90;;;;;;20916035;28;20037;-61
2023/02/25 01:34:30;;;;;;;12.27;5.20;;;5.10;99.90;;;;;;20912530;28;20056;-57
2023/02/25 01:44:36;;;;;;;10.40;4.20;;;4.90;99.90;;;;;;20914201;28;20486;-66
2023/02/25 01:54:38;;;;;;;16.83;5.20;;;4.70;99.90;;;;;;20914933;28;20478;-63
2023/02/25 02:04:43;;;;;;;8.43;4.00;;;4.90;99.90;;;;;;20914812;28;20040;-58
2023/02/25 02:14:44;;;;;;;11.13;3.70;;;5.10;99.90;;;;;;20910430;28;20052;-59
2023/02/25 02:25:11;;;;;;;10.80;3.50;;;5.20;99.90;;;;;;20911422;28;20045;-66
2023/02/25 02:35:21;;;;;;;11.52;3.00;;;5.40;99.90;;;;;;20909690;28;20458;-58
2023/02/25 02:45:45;;;;;;;8.68;3.55;;;5.40;99.90;;;;;;20909789;28;20041;-65
2023/02/25 02:55:51;;;;;;;10.40;4.07;;;5.40;99.90;;;;;;20908922;28;20033;-65
2023/02/25 03:05:53;;;;;;;12.25;3.80;;;5.20;99.90;;;;;;20890063;28;20037;-58
2023/02/25 03:26:33;;;;;;;12.90;3.72;;;5.20;99.90;;;;;;20904393;28;20044;-66
2023/02/25 03:36:49;;;;;;;15.45;4.05;;;5.10;99.90;;;;;;20902916;28;20037;-59
2023/02/25 03:46:52;;;;;;;12.45;3.83;;;5.10;99.90;;;;;;20905247;28;20036;-59
2023/02/25 03:56:55;;;;;;;15.07;3.67;;;5.10;99.90;;;;;;20903397;28;20045;-59
2023/02/25 04:06:57;;;;;;;12.45;3.40;;;5.10;99.90;;;;;;20902915;28;20040;-59
2023/02/25 04:16:58;;;;;;;12.00;3.90;;;5.10;99.90;;;;;;20904684;28;20094;-66
2023/02/25 04:27:01;;;;;;;16.00;4.35;;;5.10;99.90;;;;;;20902906;28;20398;-59
2023/02/25 04:37:03;;;;;;;11.52;4.85;;;4.90;99.90;;;;;;20906835;28;20037;-59
2023/02/25 04:47:05;;;;;;;10.25;3.92;;;4.70;99.90;;;;;;20919052;28;20037;-66
2023/02/25 04:57:07;;;;;;;8.75;3.35;;;4.60;99.90;;;;;;20919044;28;20037;-59
2023/02/25 05:07:09;;;;;;;9.57;3.42;;;4.70;99.90;;;;;;20917590;28;20417;-58
2023/02/25 05:17:12;;;;;;;10.38;3.40;;;4.80;99.90;;;;;;20915567;28;20130;-59
2023/02/25 05:27:13;;;;;;;10.75;4.00;;;4.80;99.90;;;;;;20915765;28;20063;-58
2023/02/25 05:37:15;;;;;;;12.18;3.72;;;4.60;99.90;;;;;;20915147;28;20032;-59
2023/02/25 05:47:18;;;;;;;10.20;3.55;;;4.40;99.90;;;;;;20913745;28;20052;-59
2023/02/25 05:57:22;;;;;;;14.77;3.55;;;4.50;99.90;;;;;;20914074;28;20029;-60
2023/02/25 06:07:24;;;;;;;9.02;3.03;;;4.60;99.90;;;;;;20909434;28;20059;-57
2023/02/25 06:17:26;;;;;;;11.40;3.75;;;4.90;99.90;;;;;;20912354;28;20098;-58
2023/02/25 06:27:28;;;;;;;11.85;3.00;;;4.80;99.90;;;;;;20911143;28;20043;-58
2023/02/25 06:37:30;;;;;;;10.43;3.20;;;4.70;99.90;;;;;;20907693;28;20033;-59
2023/02/25 06:47:31;;;;;;;15.73;3.58;;;4.80;99.90;;;;;;20909892;28;20032;-58
2023/02/25 06:57:34;;;;;;;14.43;3.97;;;5.00;99.90;;;;;;20908157;28;20071;-65
2023/02/25 07:07:37;;;;;;;11.57;3.30;;;5.00;99.90;;;;;;20907915;28;20029;-65
2023/02/25 07:17:38;;;;;;;11.40;2.92;;;5.10;99.90;;;;;;20906425;28;20114;-59
2023/02/25 07:27:42;;;;;;;10.70;3.35;;;5.30;99.90;;;;;;20905300;28;20391;-57
2023/02/25 07:37:43;;;;;;;16.23;6.10;;;5.60;99.90;;;;;;20903655;28;20033;-65
2023/02/25 07:47:45;;;;;;;12.93;5.13;;;6.00;99.90;;;;;;20905112;28;20135;-65
2023/02/25 07:57:47;;;;;;;11.15;3.60;;;6.10;99.90;;;;;;20905434;28;20090;-62
2023/02/25 08:07:48;;;;;;;12.50;5.13;;;6.60;99.90;;;;;;20902777;28;20416;-63
2023/02/25 08:17:50;;;;;;;15.65;5.53;;;7.10;99.90;;;;;;20903574;28;20037;-59
2023/02/25 08:27:52;;;;;;;11.68;3.70;;;7.20;99.90;;;;;;20903189;28;20041;-59
2023/02/25 08:37:54;;;;;;;17.75;4.75;;;7.70;99.90;;;;;;20901814;28;20482;-66
2023/02/25 08:47:55;;;;;;;18.42;6.70;;;8.20;99.90;;;;;;20902713;28;20032;-63
2023/02/25 08:57:57;;;;;;;16.23;6.13;;;8.20;99.90;;;;;;20900945;28;20041;-59
2023/02/25 09:07:59;;;;;;;12.35;5.25;;;8.70;99.90;;;;;;20901507;28;20040;-65
2023/02/25 09:18:00;;;;;;;17.88;5.57;;;9.30;99.90;;;;;;20901125;28;20029;-63
2023/02/25 09:28:02;;;;;;;20.70;10.60;;;9.80;99.90;;;;;;20910227;28;20037;-63
2023/02/25 09:38:04;;;;;;;20.80;9.15;;;10.20;99.90;;;;;;20913983;28;20029;-63
2023/02/25 09:48:19;;;;;;;24.10;10.50;;;10.80;99.90;;;;;;20914637;28;20095;-58
2023/02/25 09:58:39;;;;;;;20.90;9.95;;;11.40;99.90;;;;;;20912425;28;20095;-57
2023/02/25 10:09:23;;;;;;;19.77;8.83;;;11.50;99.90;;;;;;20911478;28;20037;-62
2023/02/25 10:19:43;;;;;;;16.85;8.40;;;11.50;99.90;;;;;;20912222;28;20320;-57
2023/02/25 10:29:49;;;;;;;21.07;11.73;;;11.60;99.90;;;;;;20910039;28;20539;-58
2023/02/25 10:39:55;;;;;;;25.33;12.55;;;11.90;99.90;;;;;;20911706;28;20041;-65
2023/02/25 10:50:27;;;;;;;23.83;11.95;;;11.40;99.90;;;;;;20910003;28;20029;-65
2023/02/25 11:00:32;;;;;;;27.25;12.52;;;10.90;99.90;;;;;;20907603;28;20045;-60
2023/02/25 11:10:34;;;;;;;24.92;11.82;;;10.60;99.90;;;;;;20865470;28;20040;-64
2023/02/25 11:20:49;;;;;;;29.05;12.10;;;10.20;99.90;;;;;;20907372;28;20037;-57
2023/02/25 11:30:51;;;;;;;19.05;11.30;;;10.30;99.90;;;;;;20907992;28;20037;-58
2023/02/25 11:40:54;;;;;;;26.45;11.82;;;10.50;99.90;;;;;;20906239;28;20041;-57
2023/02/25 11:50:58;;;;;;;27.50;12.48;;;11.00;99.90;;;;;;20904467;28;20029;-63
2023/02/25 12:01:39;;;;;;;22.35;12.98;;;11.50;99.90;;;;;;20905860;28;20544;-58
2023/02/25 12:12:06;;;;;;;30.27;14.13;;;11.00;99.90;;;;;;20904101;28;20083;-64
2023/02/25 12:22:33;;;;;;;27.05;13.13;;;10.70;99.90;;;;;;20902292;28;20049;-64
2023/02/25 12:32:43;;;;;;;24.08;12.23;;;9.70;99.90;;;;;;20903509;28;20545;-55
2023/02/25 12:43:13;;;;;;;25.23;11.80;;;10.00;99.90;;;;;;20903308;28;20029;-57
2023/02/25 12:53:33;;;;;;;31.60;14.63;;;11.20;99.90;;;;;;20884649;28;20033;-57
2023/02/25 13:03:54;;;;;;;27.88;14.30;;;10.40;99.90;;;;;;20914869;28;20033;-60
2023/02/25 13:14:13;;;;;;;27.42;15.95;;;10.10;99.90;;;;;;20917737;28;20049;-64
2023/02/25 13:24:40;;;;;;;26.63;14.55;;;9.60;99.90;;;;;;20916420;28;20434;-64
2023/02/25 13:35:00;;;;;;;28.70;13.23;;;9.60;99.90;;;;;;20914533;28;20041;-58
2023/02/25 13:45:23;;;;;;;;;;;9.80;99.90;;;;;;20914767;28;20033;-63
2023/02/25 13:55:44;;;;;;;25.88;10.68;;;9.70;99.90;;;;;;20913916;28;19916;-62
2023/02/25 14:06:08;;;;;;;22.48;9.38;;;9.50;99.90;;;;;;20913180;28;20071;-57
2023/02/25 14:16:48;;;;;;;15.50;6.97;;;9.30;99.90;;;;;;20910579;28;20053;-64
2023/02/25 14:27:23;;;;;;;12.68;5.20;;;9.40;99.90;;;;;;20912730;28;20087;-59
2023/02/25 14:37:39;;;;;;;12.75;5.80;;;9.20;99.90;;;;;;20890799;28;20045;-67
2023/02/25 14:47:56;;;;;;;16.25;7.53;;;8.90;99.90;;;;;;20910125;28;20055;-60
2023/02/25 14:58:20;;;;;;;15.77;7.32;;;8.50;99.90;;;;;;20909665;28;20040;-60
2023/02/25 15:08:21;;;;;;;10.90;4.82;;;8.10;99.90;;;;;;20908006;28;20033;-66
2023/02/25 15:18:41;;;;;;;12.25;5.10;;;7.90;99.90;;;;;;20906513;28;20036;-66
2023/02/25 15:28:48;;;;;;;20.30;8.17;;;7.50;99.90;;;;;;20906112;28;20445;-60
2023/02/25 15:38:55;;;;;;;12.60;4.63;;;7.40;99.90;;;;;;20906577;28;20406;-66
2023/02/25 15:49:13;;;;;;;15.90;6.03;;;6.70;99.90;;;;;;20905559;28;20055;-60
2023/02/25 15:59:36;;;;;;;;;;;6.20;99.90;;;;;;20888655;28;20514;-60
2023/02/25 16:09:43;;;;;;;21.45;7.57;;;5.80;99.90;;;;;;20901298;28;19927;-66
2023/02/25 16:19:58;;;;;;;17.35;7.15;;;5.60;99.90;;;;;;20886660;28;20029;-60
2023/02/25 16:30:12;;;;;;;17.45;7.22;;;5.30;99.90;;;;;;20902061;28;20496;-60
2023/02/25 16:40:22;;;;;;;32.42;12.45;;;5.00;99.90;;;;;;20915879;28;20466;-60
2023/02/25 16:50:25;;;;;;;25.95;10.20;;;4.90;99.90;;;;;;20919439;28;20040;-59
2023/02/25 17:00:28;;;;;;;25.60;10.25;;;4.60;99.90;;;;;;20918373;28;20037;-60
2023/02/25 17:10:41;;;;;;;27.15;11.82;;;4.20;99.90;;;;;;20918553;28;20569;-66
2023/02/25 17:20:43;;;;;;;24.13;10.32;;;3.70;99.90;;;;;;20916842;28;20474;-67
2023/02/25 17:30:46;;;;;;;17.08;8.43;;;3.90;99.90;;;;;;20915458;28;20417;-65
2023/02/25 17:40:49;;;;;;;8.48;2.40;;;3.90;99.90;;;;;;20912389;28;20037;-60
2023/02/25 17:50:53;;;;;;;8.95;1.90;;;3.70;99.90;;;;;;20913262;28;20541;-59
2023/02/25 18:01:04;;;;;;;8.48;2.05;;;4.30;99.90;;;;;;20913861;28;20056;-60
2023/02/25 18:11:21;;;;;;;7.13;1.90;;;5.40;99.90;;;;;;20911718;28;20111;-64
2023/02/25 18:21:24;;;;;;;6.78;2.00;;;5.60;99.90;;;;;;20911561;28;20287;-68
2023/02/25 18:31:26;;;;;;;5.85;1.85;;;5.70;99.90;;;;;;20911569;28;20036;-67
2023/02/25 18:41:27;;;;;;;6.88;1.63;;;5.40;99.90;;;;;;20909894;28;20433;-67
2023/02/25 18:51:29;;;;;;;11.10;1.98;;;5.40;99.90;;;;;;20908382;28;20040;-67
2023/02/25 19:01:32;;;;;;;6.88;1.63;;;5.30;99.90;;;;;;20910069;28;20037;-60
2023/02/25 19:11:35;;;;;;;4.13;0.98;;;5.70;99.90;;;;;;20907030;28;20556;-67
2023/02/25 19:21:40;;;;;;;4.82;1.33;;;6.00;99.90;;;;;;20906155;28;20516;-60
2023/02/25 19:31:42;;;;;;;5.38;1.05;;;6.20;99.90;;;;;;20907140;28;20025;-66
2023/02/25 19:41:44;;;;;;;3.83;1.60;;;6.00;98.70;;;;;;20888115;28;20033;-67
2023/02/25 19:51:46;;;;;;;5.93;1.38;;;5.80;99.90;;;;;;20905425;28;20433;-67
2023/02/25 20:01:48;;;;;;;4.57;1.38;;;5.60;99.90;;;;;;20904318;28;20033;-60
2023/02/25 20:11:51;;;;;;;14.07;3.50;;;5.10;99.90;;;;;;20904053;28;20040;-59
2023/02/25 20:21:53;;;;;;;6.15;1.83;;;4.60;99.90;;;;;;20903052;28;20044;-67
2023/02/25 20:31:56;;;;;;;6.53;1.98;;;4.20;99.90;;;;;;20901127;28;20095;-67
2023/02/25 20:41:57;;;;;;;14.88;4.50;;;4.20;99.90;;;;;;20903054;28;20386;-67
2023/02/25 20:51:59;;;;;;;13.95;4.05;;;3.90;99.90;;;;;;20901017;28;20031;-67
2023/02/25 21:02:01;;;;;;;10.20;3.80;;;3.30;99.90;;;;;;20901099;28;20033;-60
2023/02/25 21:12:03;;;;;;;22.02;8.93;;;3.20;99.90;;;;;;20899348;28;20398;-59
2023/02/25 21:22:06;;;;;;;17.05;7.72;;;2.90;99.90;;;;;;20906930;28;20036;-67
2023/02/25 21:32:08;;;;;;;15.95;7.55;;;3.10;99.90;;;;;;20915331;28;20570;-67
2023/02/25 21:42:10;;;;;;;19.00;8.63;;;3.20;99.90;;;;;;20912861;28;20089;-59
2023/02/25 21:52:11;;;;;;;16.90;6.50;;;2.90;99.90;;;;;;20912376;28;20041;-66
2023/02/25 22:02:13;;;;;;;18.50;7.30;;;3.70;99.90;;;;;;20914390;28;20025;-59
2023/02/25 22:12:15;;;;;;;25.40;9.48;;;3.70;99.90;;;;;;20911348;28;20057;-67
2023/02/25 22:22:17;;;;;;;21.63;6.72;;;3.10;99.90;;;;;;20911320;28;20037;-59
2023/02/25 22:32:19;;;;;;;18.98;6.43;;;3.20;99.90;;;;;;20910086;28;20036;-59
2023/02/25 22:42:20;;;;;;;10.73;4.90;;;3.30;99.90;;;;;;20909910;28;20126;-66
2023/02/25 22:52:22;;;;;;;11.55;4.22;;;3.90;99.90;;;;;;20908188;28;20029;-60
2023/02/25 23:02:24;;;;;;;9.45;3.45;;;4.80;99.90;;;;;;20907291;28;20545;-60
2023/02/25 23:12:25;;;;;;;9.27;3.47;;;4.90;99.90;;;;;;20908427;28;20049;-60
2023/02/25 23:22:29;;;;;;;8.35;3.53;;;4.70;99.90;;;;;;20905793;28;20437;-66
2023/02/25 23:32:31;;;;;;;22.55;7.35;;;4.70;99.90;;;;;;20908038;28;20086;-60
2023/02/25 23:42:33;;;;;;;48.97;21.60;;;4.80;99.90;;;;;;20904813;28;20110;-66
2023/02/25 23:52:34;;;;;;;29.60;13.60;;;4.00;99.90;;;;;;20905386;28;20351;-60
